Time;durP1;ratioP1;P1;durP2;ratioP2;P2;SDS_P1;SDS_P2;PMS_P1;PMS_P2;Temp;Humidity;BMP_temperature;BMP_pressure;BME280_temperature;BME280_humidity;BME280_pressure;Samples;Min_cycle;Max_cycle;Signal;HPM_P1;HPM_P2
2022/09/07 00:01:27;;;;;;;;;3.00;1.75;;;;;23.69;52.18;100591.00;5054588;28;45633;-76
2022/09/07 00:03:56;;;;;;;;;2.00;2.00;;;;;23.66;52.12;100590.56;5054246;28;46539;-75
2022/09/07 00:06:22;;;;;;;;;3.00;2.00;;;;;23.73;51.23;100599.47;5054069;28;47289;-75
2022/09/07 00:08:48;;;;;;;;;3.00;3.00;;;;;23.71;51.89;100604.19;5036198;28;45649;-75
2022/09/07 00:11:17;;;;;;;;;4.75;2.00;;;;;23.70;52.18;100602.50;5054931;28;45692;-75
2022/09/07 00:13:45;;;;;;;;;1.75;1.00;;;;;23.69;51.65;100599.03;5055190;28;45612;-76
2022/09/07 00:19:32;;;;;;;;;3.25;2.00;;;;;23.64;52.54;100609.50;5053405;28;46529;-75
2022/09/07 00:21:57;;;;;;;;;3.00;2.00;;;;;23.64;52.07;100603.31;5054166;28;45578;-74
2022/09/07 00:24:23;;;;;;;;;2.00;2.00;;;;;23.62;52.32;100608.84;5054044;28;47238;-76
2022/09/07 00:26:48;;;;;;;;;2.75;2.25;;;;;23.60;52.42;100602.03;5053733;28;45649;-74
2022/09/07 00:29:13;;;;;;;;;3.00;3.00;;;;;23.62;52.36;100610.69;5054310;28;45717;-76
2022/09/07 00:35:01;;;;;;;;;4.00;3.00;;;;;23.59;52.41;100601.19;5053916;28;45698;-75
2022/09/07 00:37:26;;;;;;;;;2.50;2.00;;;;;23.62;52.93;100606.19;5053759;28;45684;-74
2022/09/07 00:39:51;;;;;;;;;2.50;2.00;;;;;23.62;53.09;100602.66;5054006;28;45607;-75
2022/09/07 00:42:21;;;;;;;;;2.50;2.50;;;;;23.55;53.51;100594.59;5053968;28;45635;-75
2022/09/07 00:45:02;;;;;;;;;1.00;1.00;;;;;23.59;53.18;100600.41;5053923;28;45585;-74
2022/09/07 00:47:43;;;;;;;;;3.00;2.75;;;;;23.55;52.96;100586.56;5053607;28;46153;-74
2022/09/07 00:50:31;;;;;;;;;3.00;3.00;;;;;23.60;52.95;100602.84;5054045;28;45596;-74
2022/09/07 00:53:03;;;;;;;;;2.00;2.00;;;;;23.60;53.36;100607.38;5053616;28;45511;-75
2022/09/07 00:55:32;;;;;;;;;3.00;3.00;;;;;23.55;53.44;100597.25;5053616;28;45572;-74
2022/09/07 00:57:59;;;;;;;;;3.75;3.00;;;;;23.54;53.60;100592.94;5035556;28;48444;-75
2022/09/07 01:00:24;;;;;;;;;3.25;3.00;;;;;23.55;53.74;100601.78;5053764;28;45655;-73
2022/09/07 01:02:54;;;;;;;;;6.25;3.25;;;;;23.53;53.55;100601.16;5053576;28;45892;-74
2022/09/07 01:05:30;;;;;;;;;4.00;3.00;;;;;23.49;53.91;100606.06;5053337;28;47851;-74
2022/09/07 01:07:57;;;;;;;;;3.00;3.00;;;;;23.49;54.21;100602.56;5053724;28;46500;-76
2022/09/07 01:10:29;;;;;;;;;4.00;4.00;;;;;23.48;54.32;100596.41;5052907;28;46495;-74
2022/09/07 01:12:54;;;;;;;;;3.50;3.00;;;;;23.48;54.52;100598.25;5053883;28;45680;-75
2022/09/07 01:15:25;;;;;;;;;4.00;3.75;;;;;23.45;54.40;100591.38;5053496;28;45735;-76
2022/09/07 01:18:05;;;;;;;;;3.00;3.00;;;;;23.41;54.10;100592.81;5053313;28;46121;-74
2022/09/07 01:20:53;;;;;;;;;3.00;2.75;;;;;23.38;54.17;100594.00;5053165;28;45580;-73
2022/09/07 01:23:30;;;;;;;;;2.75;2.50;;;;;23.34;53.88;100598.09;5053350;28;45809;-75
2022/09/07 01:26:27;;;;;;;;;3.50;1.50;;;;;23.31;53.84;100594.97;5053014;28;47439;-75
2022/09/07 01:29:02;;;;;;;;;1.00;1.00;;;;;23.24;54.13;100591.41;5055074;28;46256;-74
2022/09/07 01:31:33;;;;;;;;;2.00;1.75;;;;;23.21;53.62;100587.25;5056447;28;45495;-74
2022/09/07 01:34:26;;;;;;;;;2.50;2.00;;;;;23.19;53.67;100593.81;5057248;28;45778;-76
2022/09/07 01:37:04;;;;;;;;;1.00;1.00;;;;;23.14;53.86;100589.06;5056591;28;46723;-74
2022/09/07 01:39:42;;;;;;;;;3.00;2.00;;;;;23.11;53.37;100578.72;5056789;28;45819;-74
2022/09/07 01:42:12;;;;;;;;;2.50;1.00;;;;;23.10;53.31;100586.97;5056791;28;45652;-74
2022/09/07 01:44:56;;;;;;;;;2.00;2.00;;;;;23.08;53.47;100587.16;5056384;28;45868;-73
2022/09/07 01:47:33;;;;;;;;;2.75;2.00;;;;;23.07;53.24;100590.84;5056025;28;46432;-75
2022/09/07 01:50:15;;;;;;;;;2.25;2.00;;;;;23.03;53.94;100597.59;5056432;28;45988;-74
2022/09/07 01:52:47;;;;;;;;;2.00;2.00;;;;;22.99;53.93;100593.63;5056834;28;45732;-74
2022/09/07 01:55:39;;;;;;;;;1.00;1.00;;;;;22.94;53.89;100588.84;5056790;28;45509;-76
2022/09/07 01:58:17;;;;;;;;;2.00;1.00;;;;;22.88;53.22;100576.25;5056437;28;46786;-74
2022/09/07 02:04:09;;;;;;;;;1.00;1.00;;;;;22.79;53.06;100581.88;5056270;28;45534;-76
2022/09/07 02:06:47;;;;;;;;;4.00;2.00;;;;;22.76;53.08;100585.78;5056259;28;45609;-75
2022/09/07 02:09:27;;;;;;;;;1.50;1.00;;;;;22.68;53.17;100577.00;5056244;28;46653;-75
2022/09/07 02:11:53;;;;;;;;;2.75;1.25;;;;;22.69;53.09;100573.31;5056314;28;45992;-76
2022/09/07 02:14:28;;;;;;;;;1.75;1.00;;;;;22.65;52.93;100580.91;5038135;28;45734;-73
2022/09/07 02:20:25;;;;;;;;;1.75;1.00;;;;;22.54;53.51;100560.84;5054881;28;45574;-74
2022/09/07 02:22:59;;;;;;;;;1.75;1.75;;;;;22.55;53.16;100565.16;5056381;28;45838;-75
2022/09/07 02:25:28;;;;;;;;;3.25;1.00;;;;;22.48;53.60;100568.78;5056725;28;45731;-74
2022/09/07 02:28:01;;;;;;;;;1.00;1.00;;;;;22.45;53.59;100575.31;5056731;28;45486;-75
2022/09/07 02:30:26;;;;;;;;;3.50;1.75;;;;;22.40;53.14;100574.22;5056733;28;46854;-73
2022/09/07 02:36:16;;;;;;;;;1.50;1.00;;;;;22.28;53.29;100570.38;5056376;28;46143;-74
2022/09/07 02:38:42;;;;;;;;;2.25;1.00;;;;;22.22;53.32;100568.44;5056356;28;45578;-74
2022/09/07 02:41:33;;;;;;;;;3.00;1.75;;;;;22.26;53.42;100570.53;5055957;28;46082;-74
2022/09/07 02:44:02;;;;;;;;;1.25;1.00;;;;;22.26;53.60;100572.38;5055716;28;46902;-76
2022/09/07 02:46:59;;;;;;;;;1.00;1.00;;;;;22.23;53.85;100573.59;5055340;28;45757;-75
2022/09/07 02:49:43;;;;;;;;;1.50;1.50;;;;;22.21;53.92;100575.63;5056250;28;45637;-74
2022/09/07 02:52:17;;;;;;;;;1.00;1.00;;;;;22.18;53.99;100562.66;5055914;28;45775;-75
2022/09/07 02:54:51;;;;;;;;;1.00;1.00;;;;;22.16;54.04;100570.00;5055457;28;46209;-75
2022/09/07 02:57:32;;;;;;;;;1.00;1.00;;;;;22.15;53.55;100573.69;5055418;28;45491;-74
2022/09/07 03:00:10;;;;;;;;;1.00;1.00;;;;;22.11;53.52;100572.41;5037617;28;45874;-74
2022/09/07 03:03:01;;;;;;;;;1.00;1.00;;;;;22.13;54.06;100570.38;5055284;28;46811;-75
2022/09/07 03:05:36;;;;;;;;;1.00;1.00;;;;;22.11;53.88;100580.41;5055376;28;46220;-75
2022/09/07 03:08:09;;;;;;;;;1.00;1.00;;;;;22.08;53.55;100564.75;5055775;28;45660;-75
2022/09/07 03:10:37;;;;;;;;;1.00;1.00;;;;;22.12;53.41;100576.72;5055736;28;45560;-75
2022/09/07 03:13:03;;;;;;;;;1.50;1.00;;;;;22.09;53.59;100567.25;5055202;28;46426;-74
2022/09/07 03:15:28;;;;;;;;;1.50;1.50;;;;;22.11;53.95;100580.41;5054902;28;46924;-74
2022/09/07 03:17:54;;;;;;;;;1.00;1.00;;;;;22.09;54.23;100577.91;5055487;28;45670;-74
2022/09/07 03:20:20;;;;;;;;;1.00;1.00;;;;;22.10;53.72;100578.75;5055325;28;45493;-74
2022/09/07 03:22:47;;;;;;;;;2.00;2.00;;;;;22.08;54.38;100581.59;5036921;28;46543;-75
2022/09/07 03:25:13;;;;;;;;;1.00;1.00;;;;;22.05;54.31;100581.13;5037233;28;47412;-74
2022/09/07 03:27:39;;;;;;;;;1.50;1.00;;;;;22.05;53.69;100589.97;5055160;28;45657;-74
2022/09/07 03:30:11;;;;;;;;;1.25;1.00;;;;;22.00;53.70;100580.88;5055196;28;45712;-75
2022/09/07 03:32:38;;;;;;;;;1.00;1.00;;;;;21.99;54.34;100579.19;5055190;28;46859;-74
2022/09/07 03:35:06;;;;;;;;;1.75;1.25;;;;;21.97;54.12;100583.91;5054870;28;47278;-75
2022/09/07 03:37:34;;;;;;;;;1.25;1.00;;;;;21.95;53.99;100591.25;5037212;28;45791;-76
2022/09/07 03:40:00;;;;;;;;;1.00;1.00;;;;;21.93;53.72;100596.75;5055056;28;45451;-75
2022/09/07 03:42:25;;;;;;;;;1.25;0.75;;;;;21.91;53.68;100595.28;5054655;28;47088;-76
2022/09/07 03:44:51;;;;;;;;;3.00;1.00;;;;;21.85;54.08;100588.00;5054995;28;46238;-75
2022/09/07 03:47:17;;;;;;;;;1.00;0.75;;;;;21.83;54.00;100593.50;5054833;28;45623;-75
2022/09/07 03:49:42;;;;;;;;;2.25;1.25;;;;;21.83;54.10;100593.50;5055133;28;45528;-75
2022/09/07 03:52:08;;;;;;;;;1.00;1.00;;;;;21.77;54.12;100591.56;5054055;28;45578;-76
2022/09/07 03:54:33;;;;;;;;;1.75;1.00;;;;;21.82;54.32;100601.69;5054443;28;47044;-77
2022/09/07 03:56:59;;;;;;;;;2.25;1.00;;;;;21.78;54.26;100599.41;5054268;28;45625;-75
2022/09/07 03:59:24;;;;;;;;;1.00;1.00;;;;;21.78;54.33;100603.91;5055059;28;45700;-75
2022/09/07 04:04:34;;;;;;;;;2.00;2.00;;;;;21.72;54.53;100613.47;5054056;28;45535;-75
2022/09/07 04:06:59;;;;;;;;;2.00;2.00;;;;;21.69;54.61;100621.00;5054654;28;45614;-74
2022/09/07 04:09:25;;;;;;;;;1.00;1.00;;;;;21.65;54.67;100619.69;5054940;28;45617;-76
2022/09/07 04:11:50;;;;;;;;;2.00;1.00;;;;;21.56;54.57;100618.09;5054429;28;47288;-76
2022/09/07 04:14:15;;;;;;;;;2.00;1.25;;;;;21.56;54.51;100624.28;5054160;28;47025;-75
2022/09/07 04:16:41;;;;;;;;;1.00;1.00;;;;;21.50;54.75;100635.66;5035793;28;45576;-74
2022/09/07 04:19:06;;;;;;;;;1.00;1.00;;;;;21.48;54.75;100628.84;5054040;28;46103;-76
2022/09/07 04:21:33;;;;;;;;;2.00;1.50;;;;;21.44;54.77;100639.03;5054364;28;46550;-77
2022/09/07 04:23:58;;;;;;;;;4.25;0.75;;;;;21.38;54.74;100639.72;5054323;28;45996;-74
2022/09/07 04:26:30;;;;;;;;;2.00;2.00;;;;;21.39;54.85;100636.06;5036117;28;45601;-76
2022/09/07 04:28:56;;;;;;;;;1.50;1.00;;;;;21.38;55.37;100639.72;5054195;28;45879;-75
2022/09/07 04:31:22;;;;;;;;;1.50;1.00;;;;;21.35;54.90;100640.09;5054349;28;46705;-74
2022/09/07 04:33:50;;;;;;;;;2.00;0.75;;;;;21.35;55.28;100632.09;5054372;28;46101;-75
2022/09/07 04:36:17;;;;;;;;;3.00;1.00;;;;;21.34;55.17;100630.44;5054091;28;45688;-75
2022/09/07 04:38:43;;;;;;;;;2.00;2.00;;;;;21.33;54.82;100628.78;5054589;28;45696;-76
2022/09/07 04:41:14;;;;;;;;;0.75;0.75;;;;;21.32;55.14;100638.59;5054296;28;45894;-76
2022/09/07 04:43:40;;;;;;;;;1.00;1.00;;;;;21.28;55.00;100629.31;5055124;28;46198;-76
2022/09/07 04:46:14;;;;;;;;;1.75;1.00;;;;;21.32;55.28;100627.16;5054939;28;45573;-75
2022/09/07 04:48:39;;;;;;;;;1.00;1.00;;;;;21.27;55.61;100622.31;5054696;28;45850;-75
2022/09/07 04:51:07;;;;;;;;;1.50;0.75;;;;;21.32;54.94;100624.47;5054507;28;47458;-74
2022/09/07 04:53:34;;;;;;;;;1.25;1.25;;;;;21.30;55.31;100624.66;5054174;28;46347;-74
2022/09/07 04:56:00;;;;;;;;;1.50;1.25;;;;;21.30;55.38;100627.31;5053518;28;45707;-74
2022/09/07 04:58:26;;;;;;;;;3.25;3.00;;;;;21.27;55.71;100626.81;5054166;28;45800;-76
2022/09/07 05:00:51;;;;;;;;;2.00;2.00;;;;;21.29;55.44;100636.31;5053658;28;46222;-74
2022/09/07 05:03:17;;;;;;;;;2.75;0.75;;;;;21.30;55.64;100634.47;5056338;28;46011;-75
2022/09/07 05:05:43;;;;;;;;;1.50;1.00;;;;;21.29;55.67;100630.16;5038820;28;45922;-74
2022/09/07 05:08:09;;;;;;;;;3.25;1.00;;;;;21.27;55.72;100626.81;5057266;28;45640;-75
2022/09/07 05:10:34;;;;;;;;;2.00;1.75;;;;;21.25;55.51;100628.84;5057407;28;45670;-76
2022/09/07 05:13:00;;;;;;;;;3.00;3.00;;;;;21.28;55.81;100631.97;5057203;28;45574;-74
2022/09/07 05:15:28;;;;;;;;;2.75;2.25;;;;;21.18;55.47;100615.41;5056334;28;45545;-76
2022/09/07 05:17:53;;;;;;;;;2.50;2.50;;;;;21.28;56.02;100631.16;5057020;28;45620;-76
2022/09/07 05:20:20;;;;;;;;;2.00;1.00;;;;;21.27;56.03;100645.47;5038943;28;46184;-76
2022/09/07 05:22:45;;;;;;;;;1.50;1.50;;;;;21.12;55.91;100621.41;5056946;28;47013;-74
2022/09/07 05:25:11;;;;;;;;;3.00;2.50;;;;;21.18;55.98;100639.38;5056805;28;45591;-75
2022/09/07 05:27:36;;;;;;;;;0.50;0.00;;;;;21.14;56.28;100637.22;5057278;28;45856;-76
2022/09/07 05:30:01;;;;;;;;;2.00;2.00;;;;;21.16;55.99;100646.72;5057204;28;46314;-75
2022/09/07 05:32:27;;;;;;;;;2.75;1.75;;;;;21.14;56.02;100646.09;5056800;28;45716;-77
2022/09/07 05:38:14;;;;;;;;;7.50;6.50;;;;;21.15;56.47;100657.56;5056535;28;45593;-77
2022/09/07 05:40:39;;;;;;;;;3.50;2.75;;;;;21.09;56.61;100647.59;5056764;28;46656;-77
2022/09/07 05:43:05;;;;;;;;;4.00;2.50;;;;;21.10;56.80;100647.41;5056480;28;46246;-78
2022/09/07 05:45:30;;;;;;;;;2.00;1.75;;;;;21.07;56.52;100645.09;5056677;28;45712;-79
2022/09/07 05:47:56;;;;;;;;;2.00;1.75;;;;;21.04;56.97;100642.78;5057186;28;45675;-77
2022/09/07 05:53:46;;;;;;;;;3.00;2.50;;;;;20.87;56.71;100626.06;5056725;28;45796;-80
2022/09/07 05:56:11;;;;;;;;;6.50;6.00;;;;;20.91;56.92;100632.69;5056956;28;45792;-79
2022/09/07 05:58:37;;;;;;;;;3.00;1.75;;;;;20.93;57.03;100638.69;5057243;28;45784;-77
2022/09/07 06:01:08;;;;;;;;;5.00;2.50;;;;;20.93;57.18;100646.69;5056771;28;46494;-77
2022/09/07 06:03:35;;;;;;;;;3.00;1.50;;;;;20.94;57.44;100642.19;5056494;28;45791;-75
2022/09/07 06:06:06;;;;;;;;;1.75;1.50;;;;;20.93;57.17;100649.34;5056320;28;45680;-78
2022/09/07 06:08:35;;;;;;;;;2.00;1.50;;;;;20.91;57.07;100646.00;5057059;28;45627;-77
2022/09/07 06:11:05;;;;;;;;;3.25;3.00;;;;;20.85;56.96;100638.72;5056682;28;45682;-78
2022/09/07 06:13:30;;;;;;;;;2.75;1.75;;;;;20.95;57.10;100652.63;5056083;28;46023;-79
2022/09/07 06:16:04;;;;;;;;;3.50;1.50;;;;;20.98;56.68;100640.00;5055933;28;45509;-79
2022/09/07 06:18:31;;;;;;;;;3.00;2.00;;;;;21.01;57.52;100639.63;5056621;28;45683;-77
2022/09/07 06:21:07;;;;;;;;;3.00;2.00;;;;;21.04;57.31;100648.13;5055869;28;46796;-78
2022/09/07 06:23:34;;;;;;;;;3.00;2.50;;;;;21.06;57.09;100646.09;5056432;28;45812;-78
2022/09/07 06:26:00;;;;;;;;;3.00;2.25;;;;;21.05;57.03;100646.28;5056244;28;45741;-77
2022/09/07 06:28:36;;;;;;;;;2.00;1.50;;;;;21.10;57.11;100660.75;5056574;28;45614;-77
2022/09/07 06:31:04;;;;;;;;;2.00;2.00;;;;;21.10;57.62;100651.91;5056067;28;45616;-77
2022/09/07 06:33:30;;;;;;;;;3.00;2.25;;;;;21.11;57.44;100658.88;5056030;28;45895;-78
2022/09/07 06:39:17;;;;;;;;;3.50;2.00;;;;;21.15;57.66;100654.91;5056028;28;45592;-77
2022/09/07 06:41:42;;;;;;;;;6.00;3.00;;;;;21.15;57.34;100653.06;5056169;28;46260;-78
2022/09/07 06:44:08;;;;;;;;;3.75;3.00;;;;;21.17;57.67;100659.03;5056121;28;45746;-78
2022/09/07 06:46:33;;;;;;;;;2.25;2.00;;;;;21.13;57.78;100638.22;5055826;28;45676;-78
2022/09/07 06:48:59;;;;;;;;;1.50;1.00;;;;;21.20;57.99;100658.72;5056018;28;45613;-78
2022/09/07 06:51:28;;;;;;;;;16.75;14.25;;;;;21.16;57.81;100653.91;5055773;28;46322;-77
2022/09/07 06:53:55;;;;;;;;;3.75;2.50;;;;;21.22;57.76;100662.00;5055953;28;45474;-77
2022/09/07 06:56:21;;;;;;;;;4.00;4.00;;;;;21.23;57.19;100665.50;5055582;28;45620;-78
2022/09/07 06:58:47;;;;;;;;;4.25;2.00;;;;;21.20;57.84;100649.88;5056141;28;45764;-75
2022/09/07 07:01:18;;;;;;;;;2.00;1.75;;;;;21.18;57.89;100647.38;5055727;28;45916;-79
2022/09/07 07:03:45;;;;;;;;;1.75;1.75;;;;;21.25;57.80;100660.84;5055822;28;46192;-78
2022/09/07 07:09:32;;;;;;;;;3.25;2.50;;;;;21.27;58.01;100643.66;5055738;28;45650;-78
2022/09/07 07:11:57;;;;;;;;;3.75;2.00;;;;;21.30;57.65;100643.31;5055774;28;45398;-78
2022/09/07 07:14:23;;;;;;;;;2.00;2.00;;;;;21.36;57.37;100639.09;5055679;28;45723;-78
2022/09/07 07:16:48;;;;;;;;;3.00;2.00;;;;;21.43;57.72;100642.69;5055274;28;45572;-78
2022/09/07 07:19:13;;;;;;;;;3.50;2.50;;;;;21.47;57.27;100644.03;5055548;28;45572;-78
2022/09/07 07:21:39;;;;;;;;;4.50;2.25;;;;;21.50;57.02;100648.16;5055566;28;46756;-79
2022/09/07 07:24:04;;;;;;;;;2.00;2.00;;;;;21.56;57.55;100650.09;5055462;28;45868;-78
2022/09/07 07:26:31;;;;;;;;;2.25;1.75;;;;;21.55;57.66;100640.44;5054255;28;45817;-78
2022/09/07 07:28:56;;;;;;;;;5.25;2.25;;;;;21.60;57.38;100648.72;5055644;28;45562;-79
2022/09/07 07:31:24;;;;;;;;;2.50;1.25;;;;;21.64;57.59;100644.72;5055431;28;45600;-78
2022/09/07 07:33:51;;;;;;;;;3.25;3.00;;;;;21.65;57.61;100636.50;5055156;28;45881;-79
2022/09/07 07:39:38;;;;;;;;;4.25;2.50;;;;;21.66;57.34;100630.19;5055421;28;45569;-78
2022/09/07 07:42:04;;;;;;;;;3.00;2.00;;;;;21.70;57.40;100634.13;5055384;28;45546;-78
2022/09/07 07:44:29;;;;;;;;;2.00;1.75;;;;;21.73;56.96;100639.13;5036967;28;47112;-79
2022/09/07 07:47:05;;;;;;;;;4.50;2.75;;;;;21.77;57.07;100632.41;5106522;27;45957;-79
2022/09/07 07:49:30;;;;;;;;;3.00;2.75;;;;;21.83;56.97;100644.19;5075896;27;46086;-79
2022/09/07 07:51:56;;;;;;;;;3.00;2.00;;;;;21.88;56.75;100639.16;5089269;27;45944;-79
2022/09/07 07:54:22;;;;;;;;;3.00;2.00;;;;;21.90;56.96;100636.31;5076253;27;46804;-78
2022/09/07 07:56:47;;;;;;;;;4.75;3.00;;;;;21.90;56.48;100631.81;5068063;27;47213;-78
2022/09/07 07:59:14;;;;;;;;;3.00;2.00;;;;;22.00;56.49;100631.56;5057146;27;45787;-79
2022/09/07 08:01:39;;;;;;;;;3.25;3.00;;;;;22.03;56.47;100634.69;5068774;28;45796;-77
2022/09/07 08:04:04;;;;;;;;;3.00;2.00;;;;;22.05;56.99;100627.34;5069109;27;47434;-79
2022/09/07 08:06:30;;;;;;;;;3.00;2.00;;;;;22.07;56.45;100629.84;5068081;27;47034;-78
2022/09/07 08:08:55;;;;;;;;;3.75;2.75;;;;;22.03;57.09;100609.84;5069003;27;45762;-78
2022/09/07 08:11:22;;;;;;;;;2.00;2.00;;;;;22.10;57.13;100618.78;5068864;27;45941;-78
2022/09/07 08:13:49;;;;;;;;;3.25;2.00;;;;;22.13;56.59;100621.09;5084891;27;47847;-78
2022/09/07 08:16:17;;;;;;;;;4.00;3.00;;;;;22.14;56.77;100620.91;5066153;27;47049;-78
2022/09/07 08:18:43;;;;;;;;;3.00;2.00;;;;;22.18;56.84;100616.88;5091214;27;46141;-78
2022/09/07 08:21:13;;;;;;;;;3.25;2.00;;;;;22.18;56.69;100614.19;5067615;27;45817;-79
2022/09/07 08:23:40;;;;;;;;;1.75;1.75;;;;;22.24;56.98;100625.16;5069354;27;45811;-80
2022/09/07 08:26:06;;;;;;;;;3.00;2.75;;;;;22.24;56.73;100628.63;5080517;27;46222;-78
2022/09/07 08:28:35;;;;;;;;;2.75;1.75;;;;;22.23;56.56;100613.63;5068272;27;45790;-78
2022/09/07 08:31:12;;;;;;;;;4.00;2.00;;;;;22.26;57.00;100618.59;5089252;27;45977;-79
2022/09/07 08:33:39;;;;;;;;;3.00;2.00;;;;;22.24;56.55;100620.59;5059579;27;46544;-78
2022/09/07 08:36:07;;;;;;;;;2.00;0.75;;;;;22.28;56.96;100627.25;5067845;27;45951;-79
2022/09/07 08:38:34;;;;;;;;;2.75;2.25;;;;;22.32;56.71;100631.22;5070904;27;45714;-79
2022/09/07 08:41:02;;;;;;;;;4.75;2.00;;;;;22.29;56.63;100620.09;5075817;27;45577;-79
2022/09/07 08:43:51;;;;;;;;;3.00;2.75;;;;;22.28;57.00;100621.91;5065156;28;45619;-78
2022/09/07 08:46:59;;;;;;;;;2.75;2.25;;;;;22.37;56.93;100630.66;5067486;27;46210;-78
2022/09/07 08:49:36;;;;;;;;;3.25;3.00;;;;;22.39;57.18;100632.13;5041031;28;45697;-78
2022/09/07 08:52:34;;;;;;;;;2.00;2.00;;;;;22.42;56.91;100639.75;5033535;28;46044;-78
2022/09/07 08:55:08;;;;;;;;;3.00;1.75;;;;;22.47;57.10;100642.72;5006100;28;45813;-79
2022/09/07 08:57:37;;;;;;;;;2.00;1.75;;;;;22.52;56.64;100639.47;5013948;28;46287;-79
2022/09/07 09:00:07;;;;;;;;;3.00;2.00;;;;;22.57;56.90;100635.22;4992773;28;45895;-77
2022/09/07 09:02:33;;;;;;;;;1.75;1.75;;;;;22.62;56.71;100634.66;4992219;28;46522;-78
2022/09/07 09:04:59;;;;;;;;;4.00;2.75;;;;;22.63;56.83;100619.47;4990690;28;46548;-78
2022/09/07 09:07:36;;;;;;;;;1.75;1.75;;;;;22.71;56.27;100624.72;5008898;28;47412;-77
2022/09/07 09:10:07;;;;;;;;;3.00;2.00;;;;;22.77;56.35;100626.69;4992844;28;45843;-78
2022/09/07 09:13:04;;;;;;;;;2.75;2.00;;;;;22.84;56.60;100614.22;4992195;28;46316;-78
2022/09/07 09:15:47;;;;;;;;;3.50;2.75;;;;;22.90;55.94;100611.63;4991359;28;46580;-77
2022/09/07 09:18:49;;;;;;;;;3.00;1.00;;;;;22.97;56.48;100620.53;5012167;28;46303;-79
2022/09/07 09:21:17;;;;;;;;;3.75;3.00;;;;;23.03;56.37;100616.28;5010028;28;45826;-77
2022/09/07 09:23:45;;;;;;;;;3.75;2.00;;;;;23.09;56.16;100618.22;5013965;28;45768;-78
2022/09/07 09:26:29;;;;;;;;;4.50;4.00;;;;;23.07;55.59;100595.34;4999322;28;47303;-78
2022/09/07 09:28:54;;;;;;;;;4.00;3.00;;;;;23.21;56.09;100608.63;5002839;28;46339;-77
2022/09/07 09:31:27;;;;;;;;;5.50;2.50;;;;;23.27;55.80;100613.22;4998425;28;47332;-79
2022/09/07 09:34:04;;;;;;;;;1.25;1.25;;;;;23.32;55.49;100616.16;5048215;28;45589;-78
2022/09/07 09:39:57;;;;;;;;;4.00;3.50;;;;;23.30;55.26;100588.78;5054658;28;46055;-77
2022/09/07 09:42:24;;;;;;;;;4.00;2.50;;;;;23.51;55.32;100612.03;5055299;28;45802;-78
2022/09/07 09:44:50;;;;;;;;;4.50;3.00;;;;;23.54;54.62;100603.63;5052996;28;45825;-77
2022/09/07 09:47:29;;;;;;;;;4.00;3.00;;;;;23.60;54.28;100594.81;5055193;28;45759;-78
2022/09/07 09:56:21;;;;;;;;;1.75;1.75;;;;;23.71;54.16;100609.53;5054364;28;45661;-77
2022/09/07 09:58:47;;;;;;;;;3.50;2.50;;;;;23.71;54.10;100601.50;5054555;28;45425;-77
2022/09/07 10:01:24;;;;;;;;;2.00;2.00;;;;;23.72;54.17;100601.31;5054790;28;45585;-79
2022/09/07 10:03:49;;;;;;;;;3.75;3.00;;;;;23.74;53.78;100601.13;5054455;28;45681;-78
2022/09/07 10:06:17;;;;;;;;;3.00;3.00;;;;;23.61;53.29;100577.75;5054325;28;45509;-78
2022/09/07 10:08:56;;;;;;;;;4.75;2.50;;;;;23.57;53.05;100579.19;5053589;28;45622;-78
2022/09/07 10:11:40;;;;;;;;;3.00;2.25;;;;;23.71;52.89;100596.16;5054812;28;46627;-78
2022/09/07 10:14:16;;;;;;;;;4.00;3.00;;;;;23.64;53.01;100582.75;5054673;28;45557;-79
2022/09/07 10:16:43;;;;;;;;;3.00;2.25;;;;;23.74;53.22;100593.09;5054732;28;45543;-76
2022/09/07 10:19:31;;;;;;;;;3.50;3.00;;;;;23.76;52.84;100593.72;5053595;28;47926;-76
2022/09/07 10:22:00;;;;;;;;;3.50;3.00;;;;;23.79;52.61;100596.00;5054242;28;46458;-76
2022/09/07 10:24:38;;;;;;;;;4.50;2.50;;;;;23.83;52.60;100586.56;5054948;28;45660;-77
2022/09/07 10:27:34;;;;;;;;;1.25;1.00;;;;;23.84;52.45;100586.38;5055487;28;45811;-76
2022/09/07 10:30:01;;;;;;;;;2.00;2.00;;;;;23.85;52.63;100595.25;5053336;28;46449;-76
2022/09/07 10:32:29;;;;;;;;;3.75;3.00;;;;;23.84;52.06;100582.88;5052748;28;46104;-77
2022/09/07 10:35:00;;;;;;;;;5.00;4.00;;;;;23.85;52.64;100589.88;5052808;28;45652;-76
2022/09/07 10:37:53;;;;;;;;;4.75;3.25;;;;;23.89;52.20;100598.34;5053133;28;45700;-78
2022/09/07 10:40:33;;;;;;;;;3.25;3.00;;;;;23.87;52.07;100585.16;5052849;28;45720;-77
2022/09/07 10:43:29;;;;;;;;;2.75;2.00;;;;;23.86;52.11;100575.47;5053006;28;46278;-77
2022/09/07 10:46:08;;;;;;;;;3.00;2.00;;;;;23.84;52.02;100583.69;5052287;28;45938;-76
2022/09/07 10:48:41;;;;;;;;;2.75;1.25;;;;;23.83;52.16;100583.88;5052826;28;45958;-76
2022/09/07 10:54:43;;;;;;;;;4.00;2.25;;;;;23.78;51.55;100584.47;5052534;28;45728;-76
2022/09/07 10:57:39;;;;;;;;;3.00;2.00;;;;;23.82;52.01;100584.91;5052857;28;45675;-79
2022/09/07 11:00:16;;;;;;;;;2.75;2.00;;;;;23.87;50.87;100570.94;5052800;28;45933;-77
2022/09/07 11:02:53;;;;;;;;;2.75;2.25;;;;;23.90;51.25;100576.75;5052316;28;46406;-77
2022/09/07 11:05:34;;;;;;;;;2.00;1.50;;;;;23.95;50.65;100573.47;5051979;28;45610;-80
2022/09/07 11:11:32;;;;;;;;;1.00;1.00;;;;;23.97;49.97;100558.84;5054604;28;45580;-80
2022/09/07 11:14:06;;;;;;;;;1.00;1.00;;;;;24.07;49.59;100567.38;5054754;28;45986;-82
2022/09/07 11:16:36;;;;;;;;;1.00;1.00;;;;;24.17;49.48;100573.22;5054555;28;46255;-81
2022/09/07 11:19:15;;;;;;;;;1.25;1.00;;;;;24.23;49.31;100569.75;5054487;28;45734;-82
2022/09/07 11:21:49;;;;;;;;;1.75;1.25;;;;;24.23;48.77;100561.72;5054521;28;45756;-77
2022/09/07 11:24:23;;;;;;;;;2.00;1.00;;;;;24.29;48.64;100570.00;5054331;28;46681;-79
2022/09/07 11:26:56;;;;;;;;;2.75;1.00;;;;;24.27;48.18;100558.63;5054360;28;46151;-78
2022/09/07 11:29:35;;;;;;;;;2.25;2.00;;;;;24.29;48.35;100570.00;5054394;28;45609;-78
2022/09/07 11:32:06;;;;;;;;;3.00;1.50;;;;;24.24;48.32;100565.19;5054359;28;45683;-77
2022/09/07 11:34:40;;;;;;;;;4.00;2.00;;;;;24.20;48.05;100558.59;5069746;28;47590;-78
2022/09/07 11:37:12;;;;;;;;;1.00;1.00;;;;;24.17;48.54;100559.84;5053441;28;45909;-77
2022/09/07 11:39:50;;;;;;;;;3.00;2.00;;;;;24.17;49.07;100557.16;5054255;28;45704;-79
2022/09/07 11:42:33;;;;;;;;;2.00;2.00;;;;;24.14;48.79;100541.44;5053084;28;45735;-79
2022/09/07 11:45:14;;;;;;;;;3.50;2.50;;;;;24.08;48.62;100539.56;5053575;28;46960;-78
2022/09/07 11:48:00;;;;;;;;;3.75;2.00;;;;;24.04;49.27;100535.63;5053628;28;46486;-77
2022/09/07 11:50:30;;;;;;;;;2.25;2.00;;;;;24.03;49.10;100542.00;5054024;28;45468;-77
2022/09/07 11:53:19;;;;;;;;;4.00;2.00;;;;;24.01;49.38;100535.22;5054328;28;45594;-78
2022/09/07 11:55:53;;;;;;;;;2.50;2.00;;;;;24.00;49.45;100542.41;5053824;28;46542;-78
2022/09/07 11:58:25;;;;;;;;;3.50;0.75;;;;;23.99;48.91;100540.75;5052574;28;47475;-75
2022/09/07 12:01:27;;;;;;;;;4.00;1.75;;;;;23.97;49.17;100542.78;5054437;28;45636;-77
2022/09/07 12:04:15;;;;;;;;;2.75;2.00;;;;;23.95;49.08;100542.19;5054474;28;45554;-80
2022/09/07 12:10:01;;;;;;;;;2.00;2.00;;;;;23.88;49.25;100540.47;5054069;28;45759;-78
2022/09/07 12:12:46;;;;;;;;;2.00;1.00;;;;;23.87;49.33;100542.31;5052870;28;45511;-79
2022/09/07 12:15:33;;;;;;;;;3.25;2.25;;;;;23.86;48.95;100538.00;5052890;28;45624;-79
2022/09/07 12:18:23;;;;;;;;;1.50;1.00;;;;;23.79;48.90;100532.63;5052712;28;47332;-80
2022/09/07 12:20:48;;;;;;;;;2.00;1.00;;;;;23.74;48.78;100526.19;5053182;28;46136;-78
2022/09/07 12:26:36;;;;;;;;;3.00;2.00;;;;;23.78;49.21;100530.97;5054015;28;45665;-80
2022/09/07 12:29:23;;;;;;;;;3.00;1.00;;;;;23.73;49.01;100543.28;5054028;28;45582;-80
2022/09/07 12:31:54;;;;;;;;;2.00;2.00;;;;;23.60;48.90;100519.09;5054057;28;46735;-80
2022/09/07 12:34:31;;;;;;;;;3.00;2.00;;;;;23.64;48.94;100536.44;5057430;28;45550;-79
2022/09/07 12:37:01;;;;;;;;;1.75;1.75;;;;;23.60;49.18;100522.59;5057733;28;45593;-80
2022/09/07 12:39:31;;;;;;;;;3.25;2.00;;;;;23.61;49.46;100524.25;5057626;28;46470;-79
2022/09/07 12:42:05;;;;;;;;;1.25;1.00;;;;;23.59;49.37;100526.28;5057660;28;46365;-80
2022/09/07 12:44:34;;;;;;;;;1.75;1.00;;;;;23.48;49.61;100504.63;5058500;28;45679;-79